createdAt,value
2022-10-13T00:01:13.438Z,36.97
2022-10-13T00:03:42.031Z,28.07
2022-10-13T00:06:10.980Z,28.97
2022-10-13T00:08:38.741Z,36.50
2022-10-13T00:11:20.638Z,39.40
2022-10-13T00:13:48.568Z,37.87
2022-10-13T00:16:18.224Z,36.53
2022-10-13T00:18:45.502Z,36.93
2022-10-13T00:21:16.707Z,30.73
2022-10-13T00:23:46.252Z,37.03
2022-10-13T00:26:20.437Z,35.80
2022-10-13T00:28:52.032Z,31.70
2022-10-13T00:31:22.105Z,32.83
2022-10-13T00:33:49.469Z,30.43
2022-10-13T00:36:19.386Z,38.60
2022-10-13T00:38:46.431Z,30.63
2022-10-13T00:41:14.044Z,31.77
2022-10-13T00:44:05.636Z,30.17
2022-10-13T00:46:37.522Z,29.77
2022-10-13T00:49:11.580Z,26.83
2022-10-13T00:51:47.141Z,29.87
2022-10-13T00:54:17.808Z,30.13
2022-10-13T00:56:45.799Z,29.33
2022-10-13T00:59:22.967Z,30.47
2022-10-13T01:01:51.180Z,22.77
2022-10-13T01:04:22.688Z,32.40
2022-10-13T01:06:50.085Z,32.03
2022-10-13T01:09:17.038Z,27.00
2022-10-13T01:11:56.211Z,30.50
2022-10-13T01:14:33.105Z,26.80
2022-10-13T01:17:11.466Z,27.17
2022-10-13T01:19:45.816Z,28.30
2022-10-13T01:22:27.552Z,25.63
2022-10-13T01:25:41.010Z,28.17
2022-10-13T01:28:17.012Z,24.93
2022-10-13T01:30:55.382Z,28.70
2022-10-13T01:33:41.749Z,22.13
2022-10-13T01:36:31.741Z,23.90
2022-10-13T01:39:08.479Z,28.40
2022-10-13T01:41:41.490Z,22.60
2022-10-13T01:44:23.389Z,26.00
2022-10-13T01:46:54.461Z,22.53
2022-10-13T01:49:27.040Z,20.77
2022-10-13T01:51:56.690Z,23.10
2022-10-13T01:54:23.410Z,18.93
2022-10-13T01:56:54.351Z,22.20
2022-10-13T01:59:24.672Z,26.67
2022-10-13T02:02:07.181Z,20.80
2022-10-13T02:04:53.993Z,21.27
2022-10-13T02:07:28.703Z,20.27
2022-10-13T02:10:22.528Z,26.67
2022-10-13T02:13:17.657Z,20.57
2022-10-13T02:15:48.429Z,24.27
2022-10-13T02:18:20.075Z,24.47
2022-10-13T02:20:47.624Z,19.60
2022-10-13T02:23:17.395Z,23.00
2022-10-13T02:25:45.837Z,24.17
2022-10-13T02:28:14.290Z,32.20
2022-10-13T02:30:45.796Z,31.30
2022-10-13T02:33:14.326Z,28.77
2022-10-13T02:35:42.223Z,27.63
2022-10-13T02:38:10.502Z,27.97
2022-10-13T02:40:37.351Z,27.97
2022-10-13T02:43:04.394Z,27.23
2022-10-13T02:45:31.588Z,32.87
2022-10-13T02:47:58.785Z,34.80
2022-10-13T02:50:25.743Z,43.27
2022-10-13T02:52:53.444Z,35.10
2022-10-13T02:55:20.338Z,29.10
2022-10-13T02:57:52.129Z,31.27
2022-10-13T03:00:19.856Z,30.50
2022-10-13T03:02:46.579Z,27.23
2022-10-13T03:05:13.599Z,28.63
2022-10-13T03:07:40.294Z,27.47
2022-10-13T03:10:07.645Z,31.90
2022-10-13T03:12:34.711Z,40.90
2022-10-13T03:15:01.526Z,39.33
2022-10-13T03:17:28.647Z,38.37
2022-10-13T03:19:55.788Z,31.83
2022-10-13T03:22:25.689Z,31.03
2022-10-13T03:24:53.836Z,25.90
2022-10-13T03:27:20.936Z,28.30
2022-10-13T03:29:47.716Z,28.57
2022-10-13T03:32:14.549Z,28.87
2022-10-13T03:34:41.452Z,28.23
2022-10-13T03:37:08.547Z,31.50
2022-10-13T03:39:41.889Z,27.87
2022-10-13T03:42:09.962Z,28.20
2022-10-13T03:44:39.098Z,28.00
2022-10-13T03:47:05.940Z,25.20
2022-10-13T03:49:32.989Z,28.03
2022-10-13T03:51:59.893Z,24.87
2022-10-13T03:54:26.715Z,28.87
2022-10-13T03:56:53.630Z,21.70
2022-10-13T03:59:20.345Z,27.97
2022-10-13T04:01:47.292Z,24.10
2022-10-13T04:04:14.473Z,26.33
2022-10-13T04:06:42.186Z,30.50
2022-10-13T04:09:09.784Z,32.47
2022-10-13T04:11:36.837Z,26.17
2022-10-13T04:14:04.004Z,39.43
2022-10-13T04:16:31.705Z,57.37
2022-10-13T04:19:05.065Z,37.20
2022-10-13T04:21:35.029Z,47.50
2022-10-13T04:24:02.818Z,46.73
2022-10-13T04:26:31.737Z,47.90
2022-10-13T04:29:05.280Z,46.43
2022-10-13T04:31:32.304Z,51.07
2022-10-13T04:33:59.110Z,41.87
2022-10-13T04:36:27.059Z,47.53
2022-10-13T04:38:54.936Z,51.13
2022-10-13T04:41:24.123Z,53.70
2022-10-13T04:43:52.275Z,47.63
2022-10-13T04:46:22.367Z,38.10
2022-10-13T04:48:49.665Z,36.00
2022-10-13T04:51:19.230Z,40.80
2022-10-13T04:53:46.264Z,38.03
2022-10-13T04:56:16.437Z,34.00
2022-10-13T04:58:45.075Z,35.27
2022-10-13T05:01:21.877Z,38.93
2022-10-13T05:04:00.268Z,35.83
2022-10-13T05:06:31.825Z,37.03
2022-10-13T05:08:59.753Z,35.40
2022-10-13T05:11:28.903Z,37.53
2022-10-13T05:13:56.668Z,37.23
2022-10-13T05:16:24.306Z,40.50
2022-10-13T05:18:53.696Z,50.53
2022-10-13T05:21:23.951Z,55.23
2022-10-13T05:23:55.563Z,43.10
2022-10-13T05:26:28.725Z,53.13
2022-10-13T05:28:56.872Z,51.83
2022-10-13T05:31:27.211Z,52.27
2022-10-13T05:33:54.723Z,64.47
2022-10-13T05:36:25.721Z,133.00
2022-10-13T05:38:55.344Z,349.90
2022-10-13T05:41:23.400Z,263.60
2022-10-13T05:43:53.435Z,239.23
2022-10-13T05:46:20.268Z,255.27
2022-10-13T05:48:47.497Z,163.83
2022-10-13T05:51:17.916Z,116.73
2022-10-13T05:53:55.445Z,94.00
2022-10-13T05:56:29.512Z,62.97
2022-10-13T05:59:01.702Z,60.93
2022-10-13T06:01:32.786Z,58.80
2022-10-13T06:04:05.148Z,58.97
2022-10-13T06:06:32.610Z,59.13
2022-10-13T06:09:01.070Z,78.03
2022-10-13T06:11:27.845Z,75.13
2022-10-13T06:13:54.847Z,55.13
2022-10-13T06:16:21.827Z,78.80
2022-10-13T06:18:48.742Z,79.57
2022-10-13T06:21:15.711Z,83.72
2022-10-13T06:23:42.420Z,62.50
2022-10-13T06:26:09.327Z,51.45
2022-10-13T06:28:37.516Z,50.55
2022-10-13T06:31:06.443Z,99.57
2022-10-13T06:33:34.194Z,80.45
2022-10-13T06:36:03.632Z,98.27
2022-10-13T06:38:30.943Z,82.97
2022-10-13T06:41:02.113Z,84.20
2022-10-13T06:43:35.995Z,81.53
2022-10-13T06:46:10.209Z,80.37
2022-10-13T06:48:37.370Z,70.47
2022-10-13T06:51:07.252Z,53.22
2022-10-13T06:53:34.132Z,47.70
2022-10-13T06:56:02.672Z,45.90
2022-10-13T06:58:29.739Z,38.40
2022-10-13T07:00:57.124Z,40.83
2022-10-13T07:03:25.081Z,37.10
2022-10-13T07:05:52.520Z,35.53
2022-10-13T07:08:19.861Z,40.83
2022-10-13T07:10:47.159Z,37.13
2022-10-13T07:13:13.996Z,45.60
2022-10-13T07:15:41.511Z,44.40
2022-10-13T07:18:08.305Z,43.88
2022-10-13T07:20:35.279Z,37.63
2022-10-13T07:23:02.895Z,33.78
2022-10-13T07:25:30.062Z,28.65
2022-10-13T07:27:59.276Z,30.60
2022-10-13T07:30:27.001Z,29.42
2022-10-13T07:32:53.882Z,27.05
2022-10-13T07:35:22.621Z,27.05
2022-10-13T07:37:54.722Z,33.47
2022-10-13T07:40:21.692Z,20.98
2022-10-13T07:42:49.101Z,23.83
2022-10-13T07:45:16.212Z,22.33
2022-10-13T07:47:43.186Z,25.42
2022-10-13T07:50:10.605Z,27.85
2022-10-13T07:52:37.734Z,25.23
2022-10-13T07:55:04.988Z,28.52
2022-10-13T07:57:31.775Z,22.67
2022-10-13T07:59:58.774Z,21.58
2022-10-13T08:02:26.307Z,20.25
2022-10-13T08:04:53.279Z,23.02
2022-10-13T08:07:20.426Z,24.65
2022-10-13T08:09:47.772Z,21.33
2022-10-13T08:12:14.775Z,25.17
2022-10-13T08:14:42.165Z,21.67
2022-10-13T08:17:09.584Z,23.38
2022-10-13T08:19:36.653Z,20.63
2022-10-13T08:22:06.631Z,34.17
2022-10-13T08:24:37.116Z,21.13
2022-10-13T08:27:04.000Z,32.80
2022-10-13T08:29:30.979Z,28.60
2022-10-13T08:31:58.018Z,24.75
2022-10-13T08:34:25.513Z,23.88
2022-10-13T08:36:54.584Z,24.17
2022-10-13T08:39:23.703Z,23.40
2022-10-13T08:41:51.771Z,25.27
2022-10-13T08:47:39.230Z,24.00
2022-10-13T08:50:24.167Z,19.48
2022-10-13T08:52:58.651Z,21.33
2022-10-13T08:55:33.216Z,21.73
2022-10-13T08:58:02.675Z,17.67
2022-10-13T09:00:30.081Z,23.73
2022-10-13T09:03:19.664Z,20.17
2022-10-13T09:06:13.584Z,20.40
2022-10-13T09:08:58.607Z,18.02
2022-10-13T09:11:35.336Z,17.13
2022-10-13T09:14:05.889Z,17.58
2022-10-13T09:16:39.195Z,22.10
2022-10-13T09:19:26.326Z,22.65
2022-10-13T09:22:21.265Z,18.95
2022-10-13T09:24:49.158Z,19.48
2022-10-13T09:27:17.271Z,18.65
2022-10-13T09:29:45.215Z,21.27
2022-10-13T09:32:15.731Z,19.35
2022-10-13T09:34:42.621Z,15.55
2022-10-13T09:37:24.038Z,15.93
2022-10-13T09:40:21.056Z,16.20
2022-10-13T09:42:53.469Z,29.27
2022-10-13T09:45:23.106Z,14.27
2022-10-13T09:47:56.038Z,14.57
2022-10-13T09:50:28.929Z,18.67
2022-10-13T09:53:19.172Z,17.38
2022-10-13T09:55:49.046Z,16.60
2022-10-13T09:58:28.214Z,17.52
2022-10-13T10:00:57.531Z,21.73
2022-10-13T10:03:27.587Z,18.52
2022-10-13T10:06:00.690Z,17.50
2022-10-13T10:09:08.124Z,20.35
2022-10-13T10:11:41.333Z,19.10
2022-10-13T10:14:26.058Z,21.80
2022-10-13T10:17:01.844Z,21.33
2022-10-13T10:20:03.691Z,23.13
2022-10-13T10:23:27.576Z,15.75
2022-10-13T10:26:06.036Z,16.80
2022-10-13T10:28:40.110Z,18.50
2022-10-13T10:31:25.533Z,13.98
2022-10-13T10:34:06.266Z,19.55
2022-10-13T10:36:39.164Z,21.33
2022-10-13T10:39:38.839Z,16.23
2022-10-13T10:42:52.466Z,15.13
2022-10-13T10:45:27.081Z,18.17
2022-10-13T10:48:00.415Z,16.02
2022-10-13T10:50:29.882Z,15.98
2022-10-13T10:53:13.638Z,17.50
2022-10-13T10:56:21.855Z,13.45
2022-10-13T10:59:28.358Z,11.93
2022-10-13T11:02:02.544Z,14.98
2022-10-13T11:04:33.235Z,17.77
2022-10-13T11:07:00.104Z,15.48
2022-10-13T11:09:41.811Z,14.80
2022-10-13T11:12:22.077Z,14.10
2022-10-13T11:14:55.190Z,8.90
2022-10-13T11:17:29.977Z,21.85
2022-10-13T11:19:57.861Z,13.93
2022-10-13T11:22:25.040Z,15.90
2022-10-13T11:25:30.517Z,12.38
2022-10-13T11:27:57.622Z,11.20
2022-10-13T11:30:47.434Z,9.70
2022-10-13T11:33:33.552Z,11.35
2022-10-13T11:36:28.855Z,13.68
2022-10-13T11:39:00.860Z,11.20
2022-10-13T11:41:36.549Z,10.57
2022-10-13T11:44:30.610Z,14.35
2022-10-13T11:47:25.546Z,12.90
2022-10-13T11:50:04.986Z,13.45
2022-10-13T11:52:47.289Z,15.27
2022-10-13T11:55:18.691Z,11.60
2022-10-13T11:57:45.516Z,10.80
2022-10-13T12:00:17.779Z,13.50
2022-10-13T12:02:53.450Z,15.50
2022-10-13T12:05:27.005Z,13.82
2022-10-13T12:08:00.548Z,15.43
2022-10-13T12:10:36.375Z,8.73
2022-10-13T12:13:07.626Z,13.20
2022-10-13T12:15:41.381Z,11.25
2022-10-13T12:18:21.950Z,12.50
2022-10-13T12:20:59.708Z,12.20
2022-10-13T12:23:27.946Z,10.40
2022-10-13T12:25:58.478Z,15.57
2022-10-13T12:28:51.250Z,11.70
2022-10-13T12:31:27.122Z,14.15
2022-10-13T12:34:02.765Z,10.32
2022-10-13T12:36:32.455Z,10.70
2022-10-13T12:39:05.977Z,10.55
2022-10-13T12:41:35.686Z,13.40
2022-10-13T12:44:06.679Z,12.43
2022-10-13T12:46:48.340Z,7.72
2022-10-13T12:49:16.555Z,13.43
2022-10-13T12:51:47.184Z,8.93
2022-10-13T12:54:31.971Z,10.50
2022-10-13T12:57:05.966Z,12.07
2022-10-13T12:59:34.623Z,12.32
2022-10-13T13:02:04.149Z,16.13
2022-10-13T13:04:41.287Z,12.88
2022-10-13T13:07:33.228Z,16.08
2022-10-13T13:10:03.657Z,14.32
2022-10-13T13:12:31.329Z,11.73
2022-10-13T13:14:58.446Z,8.48
2022-10-13T13:20:33.007Z,9.32
2022-10-13T13:23:00.894Z,10.63
2022-10-13T13:25:27.935Z,16.58
2022-10-13T13:27:54.974Z,9.77
2022-10-13T13:30:23.784Z,12.40
2022-10-13T13:32:51.014Z,15.77
2022-10-13T13:35:18.014Z,8.05
2022-10-13T13:37:50.566Z,16.75
2022-10-13T13:40:21.078Z,7.07
2022-10-13T13:42:48.421Z,15.13
2022-10-13T13:45:17.536Z,12.48
2022-10-13T13:47:44.476Z,13.10
2022-10-13T13:50:19.136Z,13.95
2022-10-13T13:52:56.618Z,12.38
2022-10-13T13:55:24.372Z,15.40
2022-10-13T13:57:51.317Z,12.63
2022-10-13T14:00:20.143Z,11.70
2022-10-13T14:02:53.073Z,22.33
2022-10-13T14:05:20.252Z,10.60
2022-10-13T14:07:47.125Z,14.52
2022-10-13T14:10:14.068Z,16.45
2022-10-13T14:12:41.122Z,13.32
2022-10-13T14:15:08.522Z,12.90
2022-10-13T14:17:35.263Z,8.80
2022-10-13T14:20:02.233Z,13.60
2022-10-13T14:22:29.647Z,10.55
2022-10-13T14:24:56.359Z,10.57
2022-10-13T14:27:23.423Z,14.13
2022-10-13T14:29:50.231Z,11.65
2022-10-13T14:32:18.144Z,12.18
2022-10-13T14:34:45.273Z,13.32
2022-10-13T14:37:12.027Z,10.93
2022-10-13T14:39:39.158Z,18.67
2022-10-13T14:42:06.056Z,9.25
2022-10-13T14:44:32.845Z,11.95
2022-10-13T14:46:59.558Z,11.35
2022-10-13T14:49:27.306Z,13.77
2022-10-13T14:51:54.048Z,13.02
2022-10-13T14:54:20.994Z,13.35
2022-10-13T14:56:47.912Z,12.68
2022-10-13T14:59:14.791Z,9.38
2022-10-13T15:01:42.651Z,10.27
2022-10-13T15:04:09.735Z,10.88
2022-10-13T15:06:41.517Z,10.60
2022-10-13T15:11:41.260Z,15.02
2022-10-13T15:14:09.645Z,14.75
2022-10-13T15:16:37.899Z,9.98
2022-10-13T15:19:04.994Z,12.15
2022-10-13T15:21:32.140Z,12.05
2022-10-13T15:23:58.949Z,14.68
2022-10-13T15:26:25.910Z,12.57
2022-10-13T15:28:53.748Z,9.95
2022-10-13T15:31:22.367Z,24.38
2022-10-13T15:33:51.850Z,22.67
2022-10-13T15:36:22.301Z,26.15
2022-10-13T15:38:49.680Z,40.30
2022-10-13T15:41:17.253Z,39.95
2022-10-13T15:43:44.266Z,48.53
2022-10-13T15:46:13.596Z,60.13
2022-10-13T15:48:40.724Z,58.03
2022-10-13T15:51:16.589Z,45.70
2022-10-13T15:53:44.152Z,43.95
2022-10-13T15:56:11.139Z,36.85
2022-10-13T15:58:38.176Z,33.30
2022-10-13T16:01:12.568Z,33.67
2022-10-13T16:03:40.167Z,41.60
2022-10-13T16:06:09.492Z,21.15
2022-10-13T16:08:37.478Z,27.55
2022-10-13T16:11:12.157Z,17.42
2022-10-13T16:13:39.670Z,17.48
2022-10-13T16:16:07.269Z,15.57
2022-10-13T16:18:36.739Z,30.23
2022-10-13T16:21:22.094Z,19.57
2022-10-13T16:23:49.344Z,38.30
2022-10-13T16:26:17.509Z,28.87
2022-10-13T16:28:45.757Z,29.37
2022-10-13T16:31:14.832Z,79.23
2022-10-13T16:33:44.199Z,112.97
2022-10-13T16:36:14.421Z,73.20
2022-10-13T16:38:41.962Z,49.83
2022-10-13T16:41:15.840Z,43.97
2022-10-13T16:43:44.003Z,47.70
2022-10-13T16:46:13.355Z,61.60
2022-10-13T16:48:41.640Z,79.50
2022-10-13T16:51:12.302Z,71.07
2022-10-13T16:53:39.273Z,94.03
2022-10-13T16:56:07.803Z,65.23
2022-10-13T16:58:35.239Z,63.33
2022-10-13T17:01:08.906Z,49.80
2022-10-13T17:03:37.504Z,29.43
2022-10-13T17:06:05.612Z,18.67
2022-10-13T17:08:33.000Z,23.07
2022-10-13T17:11:00.867Z,20.87
2022-10-13T17:13:28.060Z,18.37
2022-10-13T17:15:56.450Z,28.13
2022-10-13T17:18:24.665Z,20.83
2022-10-13T17:20:56.540Z,27.00
2022-10-13T17:23:24.451Z,20.63
2022-10-13T17:25:52.508Z,20.47
2022-10-13T17:28:20.235Z,20.13
2022-10-13T17:31:17.121Z,22.10
2022-10-13T17:33:45.338Z,19.80
2022-10-13T17:36:20.796Z,23.90
2022-10-13T17:38:49.122Z,43.53
2022-10-13T17:41:16.906Z,39.20
2022-10-13T17:43:50.838Z,32.07
2022-10-13T17:49:07.669Z,45.47
2022-10-13T17:51:34.553Z,47.23
2022-10-13T17:54:01.742Z,63.47
2022-10-13T17:56:29.365Z,84.07
2022-10-13T17:58:56.858Z,122.43
2022-10-13T18:01:26.540Z,119.53
2022-10-13T18:03:59.499Z,109.17
2022-10-13T18:06:31.495Z,108.13
2022-10-13T18:09:23.508Z,51.35
2022-10-13T18:11:52.329Z,73.57
2022-10-13T18:14:22.895Z,73.60
2022-10-13T18:16:51.561Z,58.00
2022-10-13T18:19:18.707Z,65.00
2022-10-13T18:21:45.728Z,48.73
2022-10-13T18:24:12.760Z,55.97
2022-10-13T18:26:39.978Z,51.90
2022-10-13T18:29:08.580Z,57.37
2022-10-13T18:31:37.168Z,46.67
2022-10-13T18:34:10.968Z,35.90
2022-10-13T18:36:41.566Z,48.30
2022-10-13T18:39:12.545Z,43.63
2022-10-13T18:41:40.640Z,45.87
2022-10-13T18:44:08.437Z,62.85
2022-10-13T18:46:37.034Z,98.37
2022-10-13T18:49:08.609Z,100.93
2022-10-13T18:51:38.863Z,122.47
2022-10-13T18:54:06.586Z,140.10
2022-10-13T18:56:34.325Z,136.83
2022-10-13T18:59:01.960Z,129.03
2022-10-13T19:01:32.924Z,123.17
2022-10-13T19:04:00.466Z,125.07
2022-10-13T19:06:30.378Z,168.43
2022-10-13T19:09:03.598Z,209.63
2022-10-13T19:11:32.880Z,253.27
2022-10-13T19:14:01.248Z,267.70
2022-10-13T19:16:30.153Z,250.47
2022-10-13T19:18:57.441Z,246.03
2022-10-13T19:21:24.766Z,290.17
2022-10-13T19:23:51.737Z,267.00
2022-10-13T19:26:28.308Z,262.50
2022-10-13T19:28:58.367Z,178.77
2022-10-13T19:31:28.341Z,121.90
2022-10-13T19:33:57.440Z,94.30
2022-10-13T19:36:26.202Z,61.17
2022-10-13T19:38:54.612Z,49.30
2022-10-13T19:41:21.788Z,64.97
2022-10-13T19:43:49.078Z,80.17
2022-10-13T19:46:16.367Z,102.27
2022-10-13T19:48:44.689Z,105.77
2022-10-13T19:51:11.812Z,107.50
2022-10-13T19:53:39.116Z,102.93
2022-10-13T19:56:07.033Z,124.27
2022-10-13T19:58:34.743Z,119.10
2022-10-13T20:01:08.233Z,109.33
2022-10-13T20:03:35.553Z,130.37
2022-10-13T20:06:06.997Z,136.70
2022-10-13T20:08:38.811Z,120.50
2022-10-13T20:11:07.394Z,116.37
2022-10-13T20:13:34.762Z,125.77
2022-10-13T20:16:10.145Z,133.20
2022-10-13T20:18:37.253Z,152.77
2022-10-13T20:21:05.988Z,176.63
2022-10-13T20:23:33.613Z,175.90
2022-10-13T20:26:05.633Z,201.50
2022-10-13T20:28:40.460Z,191.53
2022-10-13T20:31:12.710Z,234.77
2022-10-13T20:33:40.626Z,209.30
2022-10-13T20:36:13.280Z,283.17
2022-10-13T20:38:40.890Z,376.23
2022-10-13T20:41:29.306Z,407.20
2022-10-13T20:43:58.034Z,401.97
2022-10-13T20:46:25.662Z,396.67
2022-10-13T20:51:42.587Z,372.80
2022-10-13T20:54:13.297Z,356.13
2022-10-13T20:56:40.775Z,361.90
2022-10-13T20:59:10.862Z,342.97
2022-10-13T21:01:38.131Z,304.93
2022-10-13T21:04:05.249Z,324.43
2022-10-13T21:06:33.312Z,250.07
2022-10-13T21:09:00.459Z,180.27
2022-10-13T21:11:27.521Z,156.10
2022-10-13T21:13:55.586Z,184.23
2022-10-13T21:16:27.595Z,211.07
2022-10-13T21:18:57.171Z,260.87
2022-10-13T21:21:29.469Z,249.73
2022-10-13T21:24:00.139Z,292.30
2022-10-13T21:26:28.985Z,221.90
2022-10-13T21:28:56.523Z,198.23
2022-10-13T21:31:26.216Z,159.17
2022-10-13T21:33:55.067Z,98.90
2022-10-13T21:36:23.455Z,132.17
2022-10-13T21:38:54.256Z,125.73
2022-10-13T21:41:22.195Z,129.27
2022-10-13T21:43:50.503Z,114.67
2022-10-13T21:46:28.811Z,137.03
2022-10-13T21:48:58.419Z,129.30
2022-10-13T21:51:29.131Z,125.60
2022-10-13T21:54:00.462Z,114.27
2022-10-13T21:56:31.478Z,131.30
2022-10-13T21:58:59.993Z,134.97
2022-10-13T22:01:27.150Z,108.33
2022-10-13T22:03:56.902Z,113.30
2022-10-13T22:06:28.668Z,120.33
2022-10-13T22:08:57.736Z,97.73
2022-10-13T22:11:27.626Z,100.60
2022-10-13T22:13:56.206Z,96.70
2022-10-13T22:16:29.461Z,104.57
2022-10-13T22:18:57.590Z,99.43
2022-10-13T22:21:27.539Z,95.63
2022-10-13T22:24:04.734Z,111.80
2022-10-13T22:26:35.742Z,105.90
2022-10-13T22:29:04.621Z,103.97
2022-10-13T22:31:33.225Z,92.87
2022-10-13T22:34:05.888Z,96.47
2022-10-13T22:36:32.832Z,103.13
2022-10-13T22:39:02.879Z,91.97
2022-10-13T22:41:31.487Z,86.13
2022-10-13T22:43:59.374Z,94.67
2022-10-13T22:46:32.036Z,82.97
2022-10-13T22:48:59.564Z,84.43
2022-10-13T22:51:28.322Z,77.17
2022-10-13T22:53:55.947Z,94.17
2022-10-13T22:56:29.355Z,94.93
2022-10-13T22:59:04.665Z,88.67
2022-10-13T23:01:31.863Z,88.30
2022-10-13T23:03:59.219Z,90.43
2022-10-13T23:06:31.821Z,101.07
2022-10-13T23:09:09.123Z,94.70
2022-10-13T23:11:36.991Z,87.33
2022-10-13T23:14:06.833Z,91.60
2022-10-13T23:16:34.718Z,93.83
2022-10-13T23:19:02.850Z,92.53
2022-10-13T23:21:30.923Z,89.37
2022-10-13T23:24:02.969Z,82.00
2022-10-13T23:26:30.978Z,88.23
2022-10-13T23:28:58.637Z,75.40
2022-10-13T23:31:27.097Z,84.97
2022-10-13T23:33:54.981Z,96.43
2022-10-13T23:36:25.052Z,89.77
2022-10-13T23:38:55.441Z,101.40
2022-10-13T23:41:23.593Z,110.77
2022-10-13T23:43:50.701Z,124.47
2022-10-13T23:46:18.252Z,133.03
2022-10-13T23:48:45.598Z,133.57
2022-10-13T23:51:19.452Z,117.77
2022-10-13T23:53:46.742Z,117.17
2022-10-13T23:56:15.623Z,84.47
2022-10-13T23:58:43.761Z,76.33
